createdAt,value
2023-02-02T00:02:35.000Z,-0.52
2023-02-02T00:07:34.000Z,-0.53
2023-02-02T00:12:35.000Z,-0.57
2023-02-02T00:17:34.000Z,-0.49
2023-02-02T00:22:35.000Z,-0.49
2023-02-02T00:27:35.000Z,-0.49
2023-02-02T00:32:35.000Z,-0.51
2023-02-02T00:37:35.000Z,-0.54
2023-02-02T00:42:35.000Z,-0.49
2023-02-02T00:47:35.000Z,-0.54
2023-02-02T00:52:34.000Z,-0.59
2023-02-02T00:57:35.000Z,-0.6
2023-02-02T01:02:34.000Z,-0.6
2023-02-02T01:07:35.000Z,-0.56
2023-02-02T01:12:34.000Z,-0.59
2023-02-02T01:17:35.000Z,-0.64
2023-02-02T01:22:34.000Z,-0.77
2023-02-02T01:27:35.000Z,-0.75
2023-02-02T01:32:35.000Z,-0.7
2023-02-02T01:37:35.000Z,-0.68
2023-02-02T01:42:34.000Z,-0.68
2023-02-02T01:47:35.000Z,-0.68
2023-02-02T01:52:35.000Z,-0.57
2023-02-02T01:57:34.000Z,-0.64
2023-02-02T02:07:35.000Z,-0.5
2023-02-02T02:12:34.000Z,-0.55
2023-02-02T02:17:35.000Z,-0.54
2023-02-02T02:22:34.000Z,-0.49
2023-02-02T02:27:34.000Z,-0.49
2023-02-02T02:32:35.000Z,-0.42
2023-02-02T02:37:34.000Z,-0.39
2023-02-02T02:42:34.000Z,-0.54
2023-02-02T02:47:34.000Z,-0.5
2023-02-02T02:52:35.000Z,-0.33
2023-02-02T02:57:35.000Z,-0.31
2023-02-02T03:02:35.000Z,-0.36
2023-02-02T03:07:35.000Z,-0.32
2023-02-02T03:12:34.000Z,-0.2
2023-02-02T03:22:34.000Z,-0.13
2023-02-02T03:27:35.000Z,-0.32
2023-02-02T03:32:34.000Z,-0.67
2023-02-02T03:37:35.000Z,-0.72
2023-02-02T03:42:34.000Z,-0.87
2023-02-02T03:47:35.000Z,-0.93
2023-02-02T03:52:34.000Z,-0.94
2023-02-02T03:57:35.000Z,-0.8
2023-02-02T04:02:35.000Z,-0.8
2023-02-02T04:07:35.000Z,-0.81
2023-02-02T04:12:35.000Z,-0.83
2023-02-02T04:22:34.000Z,-0.94
2023-02-02T04:27:35.000Z,-0.93
2023-02-02T04:37:34.000Z,-0.94
2023-02-02T04:42:34.000Z,-0.98
2023-02-02T04:47:35.000Z,-0.99
2023-02-02T04:52:35.000Z,-1.05
2023-02-02T04:57:35.000Z,-1.07
2023-02-02T05:02:35.000Z,-1.07
2023-02-02T05:07:34.000Z,-1.21
2023-02-02T05:12:35.000Z,-1.15
2023-02-02T05:17:35.000Z,-1.12
2023-02-02T05:22:34.000Z,-1.14
2023-02-02T05:27:35.000Z,-1.12
2023-02-02T05:32:34.000Z,-1.15
2023-02-02T05:37:35.000Z,-1.16
2023-02-02T05:42:35.000Z,-1.14
2023-02-02T05:47:35.000Z,-1.16
2023-02-02T05:52:35.000Z,-1.19
2023-02-02T05:57:34.000Z,-1.13
2023-02-02T06:02:35.000Z,-1.1
2023-02-02T06:07:34.000Z,-1.1
2023-02-02T06:12:35.000Z,-1.05
2023-02-02T06:17:34.000Z,-1.02
2023-02-02T06:22:35.000Z,-0.94
2023-02-02T06:27:34.000Z,-0.94
2023-02-02T06:32:35.000Z,-0.82
2023-02-02T06:37:34.000Z,-0.8
2023-02-02T06:42:35.000Z,-0.76
2023-02-02T06:47:36.000Z,-0.51
2023-02-02T06:52:35.000Z,-0.48
2023-02-02T06:57:35.000Z,-0.53
2023-02-02T07:02:34.000Z,-0.4
2023-02-02T07:07:34.000Z,-0.15
2023-02-02T07:12:35.000Z,-0.08
2023-02-02T07:17:34.000Z,0.02
2023-02-02T07:22:35.000Z,0.1
2023-02-02T07:27:35.000Z,0.1
2023-02-02T07:32:35.000Z,0.05
2023-02-02T07:37:34.000Z,0.13
2023-02-02T07:42:34.000Z,0.2
2023-02-02T07:47:35.000Z,0.19
2023-02-02T07:52:35.000Z,0.25
2023-02-02T07:57:34.000Z,0.17
2023-02-02T08:02:35.000Z,0.18
2023-02-02T08:07:35.000Z,0.14
2023-02-02T08:22:35.000Z,0.1
2023-02-02T08:27:35.000Z,0.3
2023-02-02T08:32:34.000Z,0.62
2023-02-02T08:37:35.000Z,0.84
2023-02-02T08:42:35.000Z,0.83
2023-02-02T08:47:35.000Z,0.66
2023-02-02T08:52:36.000Z,0.78
2023-02-02T08:57:35.000Z,0.67
2023-02-02T09:02:35.000Z,0.67
2023-02-02T09:07:35.000Z,0.72
2023-02-02T09:12:35.000Z,0.76
2023-02-02T09:17:35.000Z,1.01
2023-02-02T09:22:34.000Z,1.2
2023-02-02T09:27:35.000Z,1.07
2023-02-02T09:32:34.000Z,0.87
2023-02-02T09:37:35.000Z,0.87
2023-02-02T09:42:34.000Z,0.93
2023-02-02T09:47:34.000Z,0.89
2023-02-02T09:57:35.000Z,0.83
2023-02-02T10:02:35.000Z,1.01
2023-02-02T10:12:34.000Z,1.14
2023-02-02T10:17:34.000Z,1.4
2023-02-02T10:22:35.000Z,1.78
2023-02-02T10:27:34.000Z,1.78
2023-02-02T10:32:35.000Z,1.95
2023-02-02T10:37:35.000Z,2.11
2023-02-02T10:42:35.000Z,2.14
2023-02-02T10:47:34.000Z,1.71
2023-02-02T10:52:35.000Z,1.58
2023-02-02T10:57:34.000Z,1.75
2023-02-02T11:02:35.000Z,1.88
2023-02-02T11:07:34.000Z,1.49
2023-02-02T11:12:35.000Z,1.19
2023-02-02T11:17:35.000Z,1.14
2023-02-02T11:22:34.000Z,1.08
2023-02-02T11:27:35.000Z,1.09
2023-02-02T11:32:34.000Z,1.04
2023-02-02T11:37:34.000Z,1.13
2023-02-02T11:42:35.000Z,1.13
2023-02-02T11:47:35.000Z,1.16
2023-02-02T11:52:36.000Z,1.23
2023-02-02T11:57:34.000Z,1.54
2023-02-02T12:02:35.000Z,1.63
2023-02-02T12:07:34.000Z,1.76
2023-02-02T12:12:35.000Z,1.56
2023-02-02T12:17:35.000Z,1.28
2023-02-02T12:22:35.000Z,1.17
2023-02-02T12:27:35.000Z,1
2023-02-02T12:32:35.000Z,0.97
2023-02-02T12:37:34.000Z,1.11
2023-02-02T12:42:35.000Z,1.15
2023-02-02T12:47:35.000Z,1.01
2023-02-02T12:52:35.000Z,1.02
2023-02-02T12:57:34.000Z,1.02
2023-02-02T13:02:34.000Z,0.88
2023-02-02T13:07:35.000Z,0.72
2023-02-02T13:12:34.000Z,0.72
2023-02-02T13:17:34.000Z,0.69
2023-02-02T13:22:35.000Z,0.63
2023-02-02T13:27:35.000Z,0.5
2023-02-02T13:32:35.000Z,0.3
2023-02-02T13:37:35.000Z,0.3
2023-02-02T13:42:35.000Z,0.39
2023-02-02T13:47:35.000Z,0.29
2023-02-02T13:52:35.000Z,0.08
2023-02-02T14:02:35.000Z,-0.09
2023-02-02T14:07:34.000Z,-0.18
2023-02-02T14:12:35.000Z,-0.18
2023-02-02T14:17:35.000Z,-0.28
2023-02-02T14:22:35.000Z,-0.32
2023-02-02T14:27:35.000Z,-0.28
2023-02-02T14:32:35.000Z,-0.26
2023-02-02T14:37:35.000Z,-0.21
2023-02-02T14:42:34.000Z,-0.18
2023-02-02T14:47:35.000Z,-0.15
2023-02-02T14:52:34.000Z,-0.09
2023-02-02T14:57:35.000Z,-0.14
2023-02-02T15:02:35.000Z,-0.14
2023-02-02T15:07:35.000Z,-0.22
2023-02-02T15:12:34.000Z,-0.24
2023-02-02T15:17:35.000Z,-0.26
2023-02-02T15:22:35.000Z,-0.28
2023-02-02T15:27:35.000Z,-0.28
2023-02-02T15:32:35.000Z,-0.25
2023-02-02T15:37:34.000Z,-0.24
2023-02-02T15:42:35.000Z,-0.22
2023-02-02T15:47:35.000Z,-0.27
2023-02-02T15:52:35.000Z,-0.28
2023-02-02T15:57:34.000Z,-0.27
2023-02-02T16:02:34.000Z,-0.23
2023-02-02T16:07:34.000Z,-0.26
2023-02-02T16:12:34.000Z,-0.22
2023-02-02T16:17:34.000Z,-0.2
2023-02-02T16:22:35.000Z,-0.16
2023-02-02T16:27:34.000Z,-0.19
2023-02-02T16:32:35.000Z,-0.14
2023-02-02T16:37:35.000Z,-0.14
2023-02-02T16:42:34.000Z,-0.15
2023-02-02T16:47:35.000Z,-0.37
2023-02-02T16:52:34.000Z,-0.34
2023-02-02T16:57:35.000Z,-0.08
2023-02-02T17:02:35.000Z,0.04
2023-02-02T17:07:35.000Z,-0.2
2023-02-02T17:12:44.000Z,-0.23
2023-02-02T17:17:35.000Z,-0.23
2023-02-02T17:22:34.000Z,-0.2
2023-02-02T17:27:35.000Z,-0.28
2023-02-02T17:32:35.000Z,-0.43
2023-02-02T17:37:34.000Z,-0.45
2023-02-02T17:42:34.000Z,-0.37
2023-02-02T17:47:35.000Z,-0.38
2023-02-02T17:52:34.000Z,-0.38
2023-02-02T17:57:35.000Z,-0.38
2023-02-02T18:02:34.000Z,-0.37
2023-02-02T18:17:34.000Z,-0.43
2023-02-02T18:22:35.000Z,-0.34
2023-02-02T18:27:35.000Z,-0.45
2023-02-02T18:32:34.000Z,-0.47
2023-02-02T18:37:34.000Z,-0.59
2023-02-02T18:42:36.000Z,-0.61
2023-02-02T18:47:35.000Z,-0.57
2023-02-02T18:57:34.000Z,-0.55
2023-02-02T19:02:35.000Z,-0.52
2023-02-02T19:07:34.000Z,-0.37
2023-02-02T19:12:35.000Z,-0.33
2023-02-02T19:17:34.000Z,-0.34
2023-02-02T19:22:35.000Z,-0.34
2023-02-02T19:27:35.000Z,-0.34
2023-02-02T19:32:34.000Z,-0.38
2023-02-02T19:37:36.000Z,-0.47
2023-02-02T19:42:34.000Z,-0.47
2023-02-02T19:47:35.000Z,-0.54
2023-02-02T19:52:35.000Z,-0.59
2023-02-02T19:57:35.000Z,-0.63
2023-02-02T20:02:35.000Z,-0.75
2023-02-02T20:07:34.000Z,-0.76
2023-02-02T20:12:35.000Z,-0.82
2023-02-02T20:17:34.000Z,-0.94
2023-02-02T20:22:35.000Z,-0.95
2023-02-02T20:27:35.000Z,-0.97
2023-02-02T20:32:34.000Z,-0.86
2023-02-02T20:37:35.000Z,-0.78
2023-02-02T20:42:35.000Z,-0.74
2023-02-02T20:47:34.000Z,-0.76
2023-02-02T20:52:35.000Z,-0.72
2023-02-02T20:57:34.000Z,-0.72
2023-02-02T21:02:35.000Z,-0.62
2023-02-02T21:07:34.000Z,-0.71
2023-02-02T21:12:34.000Z,-0.74
2023-02-02T21:17:35.000Z,-0.77
2023-02-02T21:22:34.000Z,-0.84
2023-02-02T21:27:35.000Z,-0.82
2023-02-02T21:32:34.000Z,-0.84
2023-02-02T21:37:35.000Z,-0.88
2023-02-02T21:42:34.000Z,-0.85
2023-02-02T21:47:35.000Z,-0.87
2023-02-02T21:57:34.000Z,-0.75
2023-02-02T22:02:35.000Z,-0.72
2023-02-02T22:07:34.000Z,-0.8
2023-02-02T22:12:35.000Z,-0.8
2023-02-02T22:17:34.000Z,-0.79
2023-02-02T22:22:35.000Z,-0.8
2023-02-02T22:27:34.000Z,-0.82
2023-02-02T22:32:35.000Z,-0.89
2023-02-02T22:37:34.000Z,-0.82
2023-02-02T22:42:35.000Z,-0.8
2023-02-02T22:47:34.000Z,-0.69
2023-02-02T22:52:35.000Z,-0.7
2023-02-02T22:57:34.000Z,-0.71
2023-02-02T23:02:35.000Z,-0.72
2023-02-02T23:07:35.000Z,-0.75
2023-02-02T23:12:34.000Z,-0.69
2023-02-02T23:17:35.000Z,-0.64
2023-02-02T23:22:35.000Z,-0.69
2023-02-02T23:27:34.000Z,-0.69
2023-02-02T23:32:35.000Z,-0.63
2023-02-02T23:37:34.000Z,-0.49
2023-02-02T23:42:34.000Z,-0.55
2023-02-02T23:47:34.000Z,-0.58
2023-02-02T23:52:35.000Z,-0.62
2023-02-02T23:57:35.000Z,-0.58
